createdAt,value
2018-06-12T00:01:23.047Z,9.30
2018-06-12T00:03:52.713Z,9.20
2018-06-12T00:06:22.578Z,8.73
2018-06-12T00:08:52.345Z,8.73
2018-06-12T00:11:22.260Z,9.30
2018-06-12T00:13:52.176Z,8.70
2018-06-12T00:16:22.056Z,9.50
2018-06-12T00:18:51.951Z,9.30
2018-06-12T00:21:21.705Z,10.43
2018-06-12T00:23:51.663Z,9.63
2018-06-12T00:26:21.379Z,9.37
2018-06-12T00:28:51.042Z,10.47
2018-06-12T00:31:20.675Z,10.27
2018-06-12T00:33:50.148Z,9.63
2018-06-12T00:36:19.829Z,9.47
2018-06-12T00:38:49.787Z,10.47
2018-06-12T00:41:19.710Z,9.57
2018-06-12T00:43:49.437Z,10.87
2018-06-12T00:46:19.374Z,9.67
2018-06-12T00:48:49.197Z,10.17
2018-06-12T00:51:19.174Z,10.10
2018-06-12T00:53:48.881Z,9.47
2018-06-12T00:56:29.622Z,11.07
2018-06-12T00:58:59.360Z,11.90
2018-06-12T01:01:29.214Z,11.90
2018-06-12T01:03:58.858Z,11.90
2018-06-12T01:06:28.593Z,12.27
2018-06-12T01:08:58.337Z,12.07
2018-06-12T01:11:28.117Z,11.20
2018-06-12T01:13:58.047Z,11.90
2018-06-12T01:16:27.962Z,10.97
2018-06-12T01:18:57.979Z,11.33
2018-06-12T01:21:27.619Z,12.57
2018-06-12T01:23:57.604Z,11.13
2018-06-12T01:26:27.608Z,11.90
2018-06-12T01:28:57.352Z,11.47
2018-06-12T01:31:26.865Z,11.00
2018-06-12T01:33:56.438Z,10.60
2018-06-12T01:36:26.038Z,11.63
2018-06-12T01:38:55.910Z,11.33
2018-06-12T01:41:25.683Z,11.57
2018-06-12T01:43:55.626Z,11.93
2018-06-12T01:46:25.611Z,10.57
2018-06-12T01:48:55.427Z,10.43
2018-06-12T01:51:25.327Z,11.40
2018-06-12T01:53:55.206Z,10.63
2018-06-12T01:56:25.171Z,10.77
2018-06-12T01:58:54.905Z,11.00
2018-06-12T02:01:24.565Z,11.40
2018-06-12T02:03:54.114Z,10.00
2018-06-12T02:06:23.851Z,10.63
2018-06-12T02:08:53.863Z,10.13
2018-06-12T02:11:23.563Z,10.60
2018-06-12T02:13:53.405Z,10.33
2018-06-12T02:16:23.425Z,11.17
2018-06-12T02:18:53.007Z,10.40
2018-06-12T02:21:22.679Z,11.60
2018-06-12T02:23:52.540Z,11.37
2018-06-12T02:26:22.494Z,10.60
2018-06-12T02:28:52.341Z,12.00
2018-06-12T02:31:21.908Z,11.80
2018-06-12T02:33:51.511Z,13.27
2018-06-12T02:36:21.451Z,11.97
2018-06-12T02:38:51.276Z,11.77
2018-06-12T02:41:21.474Z,11.50
2018-06-12T02:43:51.338Z,14.40
2018-06-12T02:46:21.481Z,13.10
2018-06-12T02:48:51.360Z,11.77
2018-06-12T02:51:21.304Z,12.63
2018-06-12T02:53:51.062Z,12.43
2018-06-12T02:56:20.891Z,12.10
2018-06-12T02:58:50.710Z,12.60
2018-06-12T03:01:20.375Z,13.47
2018-06-12T03:03:49.879Z,14.53
2018-06-12T03:06:19.616Z,14.20
2018-06-12T03:08:49.649Z,13.03
2018-06-12T03:11:19.493Z,12.73
2018-06-12T03:13:49.422Z,13.50
2018-06-12T03:16:19.331Z,13.73
2018-06-12T03:18:49.124Z,14.07
2018-06-12T03:21:18.979Z,12.90
2018-06-12T03:23:48.892Z,14.77
2018-06-12T03:26:18.701Z,13.87
2018-06-12T03:28:48.570Z,12.03
2018-06-12T03:31:18.114Z,13.53
2018-06-12T03:33:47.843Z,13.47
2018-06-12T03:36:17.778Z,12.63
2018-06-12T03:38:47.734Z,11.33
2018-06-12T03:41:17.429Z,12.43
2018-06-12T03:43:47.178Z,12.23
2018-06-12T03:46:17.460Z,11.50
2018-06-12T03:48:47.226Z,12.77
2018-06-12T03:51:16.997Z,12.50
2018-06-12T03:53:46.914Z,13.60
2018-06-12T03:56:16.833Z,14.07
2018-06-12T03:58:46.676Z,13.70
2018-06-12T04:01:16.350Z,12.43
2018-06-12T04:03:45.934Z,12.57
2018-06-12T04:06:15.702Z,14.23
2018-06-12T04:08:45.482Z,14.07
2018-06-12T04:11:15.441Z,14.07
2018-06-12T04:13:45.075Z,15.43
2018-06-12T04:16:14.851Z,14.97
2018-06-12T04:18:44.631Z,14.00
2018-06-12T04:21:14.488Z,13.90
2018-06-12T04:23:44.184Z,14.07
2018-06-12T04:26:14.017Z,13.07
2018-06-12T04:28:43.680Z,13.43
2018-06-12T04:31:13.310Z,14.27
2018-06-12T04:33:42.914Z,13.33
2018-06-12T04:36:12.551Z,13.17
2018-06-12T04:38:42.371Z,13.43
2018-06-12T04:41:12.120Z,14.27
2018-06-12T04:43:41.835Z,13.77
2018-06-12T04:46:11.787Z,13.30
2018-06-12T04:48:41.717Z,13.23
2018-06-12T04:51:11.609Z,12.43
2018-06-12T04:53:41.350Z,13.00
2018-06-12T04:56:11.115Z,12.63
2018-06-12T04:58:40.929Z,12.77
2018-06-12T05:01:10.634Z,13.43
2018-06-12T05:03:40.311Z,13.53
2018-06-12T05:06:09.867Z,14.23
2018-06-12T05:08:39.879Z,12.63
2018-06-12T05:11:09.628Z,12.97
2018-06-12T05:13:39.552Z,12.60
2018-06-12T05:16:09.301Z,11.90
2018-06-12T05:18:39.347Z,12.10
2018-06-12T05:21:09.180Z,11.93
2018-06-12T05:23:38.878Z,12.10
2018-06-12T05:26:08.820Z,11.50
2018-06-12T05:28:38.787Z,13.37
2018-06-12T05:31:08.415Z,13.10
2018-06-12T05:33:38.020Z,12.47
2018-06-12T05:36:07.684Z,12.47
2018-06-12T05:38:37.674Z,11.10
2018-06-12T05:41:07.696Z,11.00
2018-06-12T05:43:37.815Z,11.27
2018-06-12T05:46:07.514Z,10.37
2018-06-12T05:48:37.207Z,9.93
2018-06-12T05:51:07.141Z,10.03
2018-06-12T05:53:37.147Z,10.13
2018-06-12T05:56:07.086Z,11.70
2018-06-12T05:58:37.299Z,8.17
2018-06-12T06:01:07.226Z,10.67
2018-06-12T06:03:36.899Z,14.07
2018-06-12T06:06:06.494Z,14.67
2018-06-12T06:08:36.059Z,14.63
2018-06-12T06:11:06.034Z,14.17
2018-06-12T06:13:35.852Z,14.87
2018-06-12T06:16:05.621Z,15.20
2018-06-12T06:18:35.791Z,15.47
2018-06-12T06:21:05.587Z,14.70
2018-06-12T06:23:35.331Z,14.23
2018-06-12T06:26:05.211Z,11.87
2018-06-12T06:28:35.074Z,14.30
2018-06-12T06:31:04.783Z,13.03
2018-06-12T06:33:34.687Z,11.07
2018-06-12T06:36:04.353Z,11.27
2018-06-12T06:38:34.093Z,12.33
2018-06-12T06:41:03.764Z,11.03
2018-06-12T06:43:33.476Z,11.97
2018-06-12T06:46:03.479Z,11.10
2018-06-12T06:48:33.324Z,11.53
2018-06-12T06:51:03.198Z,11.73
2018-06-12T06:53:33.083Z,12.10
2018-06-12T06:56:03.003Z,11.43
2018-06-12T06:58:32.562Z,12.78
2018-06-12T07:01:02.434Z,13.58
2018-06-12T07:03:32.132Z,12.53
2018-06-12T07:06:02.016Z,11.93
2018-06-12T07:08:31.566Z,11.50
2018-06-12T07:11:01.233Z,11.15
2018-06-12T07:13:30.877Z,9.93
2018-06-12T07:16:00.826Z,11.60
2018-06-12T07:18:30.923Z,11.83
2018-06-12T07:21:19.298Z,11.73
2018-06-12T07:23:49.002Z,11.65
2018-06-12T07:26:19.003Z,11.63
2018-06-12T07:28:48.829Z,11.48
2018-06-12T07:31:18.520Z,11.15
2018-06-12T07:33:48.236Z,11.75
2018-06-12T07:36:18.326Z,11.57
2018-06-12T07:38:48.048Z,10.63
2018-06-12T07:41:17.774Z,10.85
2018-06-12T07:43:47.416Z,11.53
2018-06-12T07:46:17.043Z,12.37
2018-06-12T07:48:46.622Z,12.07
2018-06-12T07:51:16.408Z,11.28
2018-06-12T07:53:46.103Z,12.13
2018-06-12T07:56:16.036Z,10.68
2018-06-12T07:58:45.960Z,11.93
2018-06-12T08:01:15.759Z,10.78
2018-06-12T08:03:45.437Z,11.88
2018-06-12T08:06:15.514Z,13.88
2018-06-12T08:08:45.268Z,10.55
2018-06-12T08:11:15.122Z,14.53
2018-06-12T08:13:45.051Z,11.78
2018-06-12T08:16:14.654Z,11.63
2018-06-12T08:18:44.248Z,12.05
2018-06-12T08:21:13.909Z,10.90
2018-06-12T08:23:43.497Z,11.35
2018-06-12T08:26:13.333Z,11.97
2018-06-12T08:28:43.199Z,11.38
2018-06-12T08:31:12.885Z,12.05
2018-06-12T08:33:42.730Z,11.88
2018-06-12T08:36:12.490Z,11.20
2018-06-12T08:38:42.075Z,11.40
2018-06-12T08:41:12.002Z,11.15
2018-06-12T08:43:41.823Z,11.78
2018-06-12T08:46:11.648Z,11.93
2018-06-12T08:48:41.571Z,12.00
2018-06-12T08:51:11.276Z,12.65
2018-06-12T08:53:41.278Z,12.20
2018-06-12T08:56:10.872Z,11.38
2018-06-12T08:58:40.922Z,11.60
2018-06-12T09:01:10.939Z,12.05
2018-06-12T09:03:40.809Z,10.65
2018-06-12T09:06:10.593Z,11.10
2018-06-12T09:08:40.270Z,12.20
2018-06-12T09:11:09.984Z,10.98
2018-06-12T09:13:39.817Z,11.55
2018-06-12T09:16:09.517Z,12.07
2018-06-12T09:18:39.167Z,11.83
2018-06-12T09:21:08.835Z,12.07
2018-06-12T09:23:38.571Z,12.60
2018-06-12T09:26:08.175Z,12.40
2018-06-12T09:28:37.798Z,12.28
2018-06-12T09:31:07.679Z,13.22
2018-06-12T09:33:38.379Z,12.13
2018-06-12T09:36:13.468Z,14.60
2018-06-12T09:38:43.195Z,14.18
2018-06-12T09:41:13.112Z,14.25
2018-06-12T09:43:42.639Z,14.55
2018-06-12T09:46:12.535Z,13.85
2018-06-12T09:48:42.288Z,13.80
2018-06-12T09:51:12.003Z,12.03
2018-06-12T09:53:41.731Z,13.93
2018-06-12T09:56:11.238Z,13.75
2018-06-12T09:58:40.754Z,13.70
2018-06-12T10:01:15.548Z,13.62
2018-06-12T10:03:45.280Z,13.60
2018-06-12T10:06:15.246Z,12.70
2018-06-12T10:08:45.175Z,13.18
2018-06-12T10:11:14.951Z,12.53
2018-06-12T10:13:44.776Z,14.05
2018-06-12T10:16:14.524Z,13.88
2018-06-12T10:18:44.491Z,13.48
2018-06-12T10:21:14.490Z,13.68
2018-06-12T10:23:44.311Z,12.50
2018-06-12T10:26:13.945Z,13.38
2018-06-12T10:28:43.723Z,12.45
2018-06-12T10:31:13.325Z,13.68
2018-06-12T10:33:42.938Z,11.93
2018-06-12T10:36:12.945Z,12.93
2018-06-12T10:38:42.811Z,12.23
2018-06-12T10:41:12.506Z,13.15
2018-06-12T10:43:42.144Z,13.22
2018-06-12T10:46:12.048Z,14.90
2018-06-12T10:48:41.747Z,14.63
2018-06-12T10:51:11.703Z,14.28
2018-06-12T10:53:41.547Z,12.90
2018-06-12T10:56:11.612Z,12.88
2018-06-12T10:58:41.278Z,14.07
2018-06-12T11:01:10.984Z,14.53
2018-06-12T11:03:40.717Z,14.43
2018-06-12T11:06:10.381Z,12.47
2018-06-12T11:08:40.124Z,13.60
2018-06-12T11:11:09.989Z,14.87
2018-06-12T11:13:39.716Z,13.08
2018-06-12T11:16:09.333Z,13.35
2018-06-12T11:18:38.999Z,14.13
2018-06-12T11:21:08.767Z,15.55
2018-06-12T11:23:38.731Z,12.68
2018-06-12T11:26:08.254Z,12.98
2018-06-12T11:28:38.283Z,12.68
2018-06-12T11:31:07.858Z,12.93
2018-06-12T11:33:37.503Z,13.00
2018-06-12T11:36:07.148Z,12.55
2018-06-12T11:38:36.824Z,13.03
2018-06-12T11:41:06.635Z,12.55
2018-06-12T11:43:36.248Z,13.15
2018-06-12T11:46:06.203Z,13.98
2018-06-12T11:48:36.003Z,14.85
2018-06-12T11:51:05.827Z,12.20
2018-06-12T11:53:35.603Z,12.73
2018-06-12T11:56:05.546Z,13.03
2018-06-12T11:58:35.403Z,12.10
2018-06-12T12:01:05.287Z,12.10
2018-06-12T12:03:34.975Z,12.70
2018-06-12T12:06:04.554Z,12.37
2018-06-12T12:08:34.144Z,12.13
2018-06-12T12:11:04.016Z,11.08
2018-06-12T12:13:33.810Z,11.83
2018-06-12T12:16:03.610Z,11.35
2018-06-12T12:18:33.540Z,11.73
2018-06-12T12:21:03.439Z,11.78
2018-06-12T12:23:33.320Z,10.93
2018-06-12T12:26:03.016Z,11.50
2018-06-12T12:28:32.711Z,10.30
2018-06-12T12:31:02.691Z,10.90
2018-06-12T12:33:32.476Z,11.00
2018-06-12T12:36:02.264Z,11.33
2018-06-12T12:38:31.933Z,10.85
2018-06-12T12:41:01.524Z,12.15
2018-06-12T12:43:31.463Z,11.22
2018-06-12T12:46:01.370Z,10.95
2018-06-12T12:48:31.287Z,12.13
2018-06-12T12:51:01.069Z,11.90
2018-06-12T12:53:30.777Z,12.80
2018-06-12T12:56:00.858Z,12.88
2018-06-12T12:58:30.621Z,13.10
2018-06-12T13:01:00.382Z,10.38
2018-06-12T13:03:30.306Z,10.85
2018-06-12T13:05:59.907Z,11.20
2018-06-12T13:08:29.468Z,10.95
2018-06-12T13:10:59.128Z,11.10
2018-06-12T13:13:29.013Z,10.58
2018-06-12T13:15:58.599Z,11.38
2018-06-12T13:18:28.340Z,10.90
2018-06-12T13:20:58.295Z,10.08
2018-06-12T13:23:27.988Z,11.35
2018-06-12T13:25:57.796Z,12.55
2018-06-12T13:28:27.545Z,10.32
2018-06-12T13:30:57.358Z,10.30
2018-06-12T13:33:27.111Z,11.65
2018-06-12T13:35:57.055Z,12.05
2018-06-12T13:38:26.824Z,12.80
2018-06-12T13:40:56.681Z,11.85
2018-06-12T13:43:26.463Z,10.70
2018-06-12T13:45:56.398Z,12.45
2018-06-12T13:48:26.369Z,11.43
2018-06-12T13:50:56.563Z,12.23
2018-06-12T13:53:26.512Z,12.13
2018-06-12T13:55:56.422Z,10.48
2018-06-12T13:58:26.129Z,10.28
2018-06-12T14:00:55.947Z,17.12
2018-06-12T14:03:25.708Z,11.75
2018-06-12T14:05:55.547Z,12.20
2018-06-12T14:08:25.237Z,11.57
2018-06-12T14:10:54.802Z,10.68
2018-06-12T14:13:24.381Z,11.20
2018-06-12T14:15:54.087Z,10.95
2018-06-12T14:18:23.951Z,10.85
2018-06-12T14:20:53.998Z,11.95
2018-06-12T14:23:23.800Z,10.23
2018-06-12T14:25:53.697Z,11.48
2018-06-12T14:28:23.616Z,11.28
2018-06-12T14:30:53.595Z,11.65
2018-06-12T14:33:23.641Z,13.80
2018-06-12T14:35:53.241Z,12.28
2018-06-12T14:38:22.818Z,11.22
2018-06-12T14:40:52.462Z,12.18
2018-06-12T14:43:22.395Z,10.78
2018-06-12T14:45:51.960Z,9.98
2018-06-12T14:48:21.607Z,11.43
2018-06-12T14:50:51.658Z,10.55
2018-06-12T14:53:21.484Z,11.88
2018-06-12T14:55:51.210Z,12.65
2018-06-12T14:58:20.908Z,11.03
2018-06-12T15:00:50.497Z,12.78
2018-06-12T15:03:20.421Z,12.28
2018-06-12T15:05:50.159Z,10.58
2018-06-12T15:08:19.786Z,11.25
2018-06-12T15:10:49.486Z,13.22
2018-06-12T15:13:19.463Z,11.40
2018-06-12T15:15:49.044Z,12.98
2018-06-12T15:18:18.926Z,11.80
2018-06-12T15:20:48.626Z,12.68
2018-06-12T15:23:18.552Z,12.93
2018-06-12T15:25:48.220Z,13.20
2018-06-12T15:28:18.276Z,13.25
2018-06-12T15:30:48.381Z,14.00
2018-06-12T15:33:18.012Z,14.07
2018-06-12T15:35:47.695Z,11.93
2018-06-12T15:38:17.399Z,12.58
2018-06-12T15:40:47.259Z,13.50
2018-06-12T15:43:17.106Z,11.57
2018-06-12T15:45:46.634Z,12.70
2018-06-12T15:48:16.617Z,13.28
2018-06-12T15:50:46.192Z,12.23
2018-06-12T15:53:15.807Z,12.98
2018-06-12T15:55:45.522Z,12.30
2018-06-12T15:58:15.299Z,12.68
2018-06-12T16:00:45.098Z,11.50
2018-06-12T16:03:14.995Z,12.18
2018-06-12T16:05:44.716Z,11.28
2018-06-12T16:08:14.518Z,11.60
2018-06-12T16:10:44.316Z,10.48
2018-06-12T16:13:14.401Z,11.03
2018-06-12T16:15:44.154Z,11.38
2018-06-12T16:18:14.067Z,11.05
2018-06-12T16:20:43.799Z,11.80
2018-06-12T16:23:13.833Z,11.35
2018-06-12T16:25:43.484Z,11.12
2018-06-12T16:28:13.262Z,11.93
2018-06-12T16:30:43.106Z,12.33
2018-06-12T16:33:13.048Z,11.33
2018-06-12T16:35:42.810Z,11.35
2018-06-12T16:38:12.399Z,13.38
2018-06-12T16:40:42.075Z,11.28
2018-06-12T16:43:11.716Z,13.40
2018-06-12T16:45:41.365Z,13.62
2018-06-12T16:48:11.283Z,12.82
2018-06-12T16:50:40.992Z,12.28
2018-06-12T16:53:10.639Z,12.68
2018-06-12T16:55:40.382Z,12.93
2018-06-12T16:58:10.119Z,12.47
2018-06-12T17:00:39.942Z,11.85
2018-06-12T17:03:09.606Z,11.73
2018-06-12T17:05:39.369Z,11.48
2018-06-12T17:08:09.076Z,11.53
2018-06-12T17:10:38.793Z,12.15
2018-06-12T17:13:08.651Z,12.28
2018-06-12T17:15:38.616Z,12.73
2018-06-12T17:18:08.291Z,13.65
2018-06-12T17:20:38.197Z,13.75
2018-06-12T17:23:07.950Z,13.45
2018-06-12T17:25:37.769Z,13.00
2018-06-12T17:28:07.856Z,12.10
2018-06-12T17:30:37.654Z,11.90
2018-06-12T17:33:07.814Z,12.73
2018-06-12T17:35:37.512Z,13.03
2018-06-12T17:38:07.205Z,13.38
2018-06-12T17:40:37.060Z,12.65
2018-06-12T17:43:06.949Z,13.05
2018-06-12T17:45:36.964Z,13.35
2018-06-12T17:48:06.928Z,13.08
2018-06-12T17:50:36.847Z,15.00
2018-06-12T17:53:06.692Z,15.23
2018-06-12T17:55:36.332Z,15.43
2018-06-12T17:58:05.957Z,15.00
2018-06-12T18:00:35.522Z,15.13
2018-06-12T18:03:05.309Z,16.20
2018-06-12T18:05:35.143Z,15.32
2018-06-12T18:08:05.086Z,15.68
2018-06-12T18:10:35.042Z,14.47
2018-06-12T18:13:04.831Z,15.03
2018-06-12T18:15:34.701Z,16.00
2018-06-12T18:18:04.436Z,16.65
2018-06-12T18:20:34.060Z,16.12
2018-06-12T18:23:03.793Z,14.90
2018-06-12T18:25:33.916Z,15.32
2018-06-12T18:28:03.590Z,15.95
2018-06-12T18:30:33.264Z,15.15
2018-06-12T18:33:04.899Z,15.65
2018-06-12T18:35:34.971Z,16.35
2018-06-12T18:38:04.817Z,15.25
2018-06-12T18:40:34.667Z,15.50
2018-06-12T18:43:04.634Z,15.70
2018-06-12T18:45:34.611Z,16.93
2018-06-12T18:48:04.638Z,16.82
2018-06-12T18:50:34.443Z,16.33
2018-06-12T18:53:04.064Z,16.80
2018-06-12T18:55:33.678Z,17.13
2018-06-12T18:58:03.289Z,16.32
2018-06-12T19:00:33.087Z,17.93
2018-06-12T19:03:02.788Z,17.13
2018-06-12T19:05:32.507Z,16.07
2018-06-12T19:08:02.475Z,16.77
2018-06-12T19:10:32.174Z,16.80
2018-06-12T19:13:02.042Z,15.90
2018-06-12T19:15:32.050Z,17.23
2018-06-12T19:18:01.980Z,17.93
2018-06-12T19:20:31.566Z,16.77
2018-06-12T19:23:01.580Z,16.37
2018-06-12T19:25:31.125Z,16.00
2018-06-12T19:28:00.748Z,16.07
2018-06-12T19:30:30.300Z,15.57
2018-06-12T19:33:00.083Z,15.03
2018-06-12T19:35:29.951Z,15.93
2018-06-12T19:38:00.015Z,15.63
2018-06-12T19:40:29.883Z,15.63
2018-06-12T19:42:59.752Z,15.93
2018-06-12T19:45:29.581Z,18.03
2018-06-12T19:47:59.289Z,17.00
2018-06-12T19:50:28.973Z,15.87
2018-06-12T19:52:58.750Z,17.07
2018-06-12T19:55:28.817Z,16.83
2018-06-12T19:57:58.725Z,16.17
2018-06-12T20:00:28.890Z,16.03
2018-06-12T20:02:58.538Z,16.87
2018-06-12T20:05:28.055Z,15.80
2018-06-12T20:07:57.748Z,16.30
2018-06-12T20:10:27.553Z,15.00
2018-06-12T20:12:57.246Z,15.67
2018-06-12T20:15:27.207Z,15.93
2018-06-12T20:17:56.953Z,15.43
2018-06-12T20:20:27.076Z,15.30
2018-06-12T20:22:57.415Z,16.33
2018-06-12T20:25:27.199Z,15.90
2018-06-12T20:27:56.935Z,17.50
2018-06-12T20:30:27.782Z,15.83
2018-06-12T20:32:57.367Z,15.93
2018-06-12T20:35:27.159Z,14.90
2018-06-12T20:37:57.071Z,15.03
2018-06-12T20:40:27.493Z,17.40
2018-06-12T20:42:57.502Z,15.27
2018-06-12T20:45:27.222Z,15.13
2018-06-12T20:47:56.866Z,15.37
2018-06-12T20:50:27.039Z,14.77
2018-06-12T20:52:56.622Z,14.83
2018-06-12T20:55:26.436Z,14.33
2018-06-12T20:57:56.283Z,15.80
2018-06-12T21:00:26.294Z,16.10
2018-06-12T21:02:56.524Z,15.17
2018-06-12T21:05:26.076Z,15.77
2018-06-12T21:07:55.786Z,14.90
2018-06-12T21:10:25.681Z,14.03
2018-06-12T21:12:55.559Z,14.37
2018-06-12T21:15:26.099Z,14.53
2018-06-12T21:17:56.075Z,13.80
2018-06-12T21:20:26.420Z,15.50
2018-06-12T21:22:56.394Z,14.23
2018-06-12T21:25:26.136Z,15.37
2018-06-12T21:27:56.499Z,14.60
2018-06-12T21:30:26.456Z,15.37
2018-06-12T21:32:56.342Z,15.43
2018-06-12T21:35:26.222Z,14.13
2018-06-12T21:37:55.850Z,14.83
2018-06-12T21:40:25.799Z,14.90
2018-06-12T21:42:55.757Z,14.33
2018-06-12T21:45:25.469Z,14.83
2018-06-12T21:47:55.710Z,14.33
2018-06-12T21:50:25.403Z,15.27
2018-06-12T21:52:55.321Z,14.67
2018-06-12T21:55:25.316Z,15.37
2018-06-12T21:57:55.881Z,14.17
2018-06-12T22:00:33.164Z,15.70
2018-06-12T22:03:03.590Z,14.77
2018-06-12T22:05:33.141Z,15.97
2018-06-12T22:08:03.143Z,16.03
2018-06-12T22:10:32.659Z,15.97
2018-06-12T22:13:02.247Z,15.53
2018-06-12T22:15:32.162Z,16.37
2018-06-12T22:18:02.144Z,16.17
2018-06-12T22:20:32.202Z,16.97
2018-06-12T22:23:02.074Z,16.20
2018-06-12T22:25:31.718Z,16.37
2018-06-12T22:28:01.683Z,16.63
2018-06-12T22:30:31.238Z,15.40
2018-06-12T22:33:01.134Z,15.57
2018-06-12T22:35:30.706Z,16.43
2018-06-12T22:38:00.380Z,15.07
2018-06-12T22:40:29.978Z,16.33
2018-06-12T22:43:00.022Z,15.47
2018-06-12T22:45:29.627Z,15.53
2018-06-12T22:47:59.619Z,15.37
2018-06-12T22:50:29.523Z,16.63
2018-06-12T22:52:59.288Z,16.33
2018-06-12T22:55:29.487Z,16.53
2018-06-12T22:57:59.286Z,16.70
2018-06-12T23:00:29.506Z,16.80
2018-06-12T23:02:59.189Z,16.97
2018-06-12T23:05:29.003Z,15.83
2018-06-12T23:07:58.863Z,18.13
2018-06-12T23:10:28.474Z,17.30
2018-06-12T23:12:58.026Z,16.00
2018-06-12T23:15:28.020Z,17.27
2018-06-12T23:17:57.979Z,17.30
2018-06-12T23:21:15.405Z,17.27
2018-06-12T23:23:45.159Z,16.87
2018-06-12T23:26:14.908Z,16.10
2018-06-12T23:28:45.071Z,16.37
2018-06-12T23:31:14.766Z,16.60
2018-06-12T23:33:44.680Z,15.13
2018-06-12T23:36:14.678Z,15.90
2018-06-12T23:38:44.416Z,15.43
2018-06-12T23:41:14.222Z,15.00
2018-06-12T23:43:44.228Z,16.10
2018-06-12T23:46:13.834Z,15.87
2018-06-12T23:48:43.786Z,15.90
2018-06-12T23:51:13.735Z,16.70
2018-06-12T23:53:43.390Z,16.90
2018-06-12T23:56:13.721Z,17.43
2018-06-12T23:58:43.425Z,15.93
